createdAt,value
2022-10-01T00:02:06.942Z,100246.44
2022-10-01T00:04:37.337Z,100243.50
2022-10-01T00:07:09.597Z,100243.34
2022-10-01T00:09:38.743Z,100240.41
2022-10-01T00:12:06.976Z,100226.53
2022-10-01T00:14:35.815Z,100235.78
2022-10-01T00:17:05.601Z,100226.50
2022-10-01T00:19:33.836Z,100226.22
2022-10-01T00:22:02.052Z,100224.22
2022-10-01T00:24:30.551Z,100218.88
2022-10-01T00:26:58.986Z,100226.78
2022-10-01T00:29:27.159Z,100229.81
2022-10-01T00:31:55.518Z,100226.81
2022-10-01T00:34:25.347Z,100217.94
2022-10-01T00:36:53.535Z,100226.22
2022-10-01T00:39:22.123Z,100220.44
2022-10-01T00:41:52.725Z,100227.88
2022-10-01T00:44:31.893Z,100224.44
2022-10-01T00:47:04.580Z,100225.09
2022-10-01T00:49:35.973Z,100226.75
2022-10-01T00:52:08.826Z,100216.50
2022-10-01T00:54:40.764Z,100221.59
2022-10-01T00:57:09.206Z,100222.72
2022-10-01T00:59:38.237Z,100210.00
2022-10-01T01:02:06.616Z,100212.31
2022-10-01T01:04:36.404Z,100222.88
2022-10-01T01:07:07.261Z,100222.06
2022-10-01T01:09:36.880Z,100222.22
2022-10-01T01:12:12.478Z,100220.88
2022-10-01T01:14:47.573Z,100216.88
2022-10-01T01:17:20.843Z,100219.06
2022-10-01T01:19:53.949Z,100212.59
2022-10-01T01:22:24.752Z,100211.59
2022-10-01T01:24:57.128Z,100210.16
2022-10-01T01:27:32.749Z,100211.59
2022-10-01T01:30:05.300Z,100214.28
2022-10-01T01:32:39.583Z,100210.00
2022-10-01T01:35:09.923Z,100209.19
2022-10-01T01:37:40.876Z,100214.44
2022-10-01T01:40:11.677Z,100201.75
2022-10-01T01:42:43.204Z,100208.75
2022-10-01T01:45:16.237Z,100212.97
2022-10-01T01:47:45.414Z,100211.97
2022-10-01T01:50:14.734Z,100209.34
2022-10-01T01:52:43.009Z,100214.28
2022-10-01T01:55:11.716Z,100209.94
2022-10-01T01:57:42.485Z,100206.00
2022-10-01T02:00:14.564Z,100196.41
2022-10-01T02:02:46.676Z,100192.78
2022-10-01T02:05:17.345Z,100192.94
2022-10-01T02:07:57.303Z,100189.47
2022-10-01T02:10:37.171Z,100188.31
2022-10-01T02:13:16.102Z,100196.72
2022-10-01T02:15:52.078Z,100200.16
2022-10-01T02:18:27.085Z,100201.28
2022-10-01T02:21:00.649Z,100202.16
2022-10-01T02:23:31.422Z,100189.06
2022-10-01T02:26:01.669Z,100187.81
2022-10-01T02:28:30.353Z,100187.13
2022-10-01T02:31:01.460Z,100189.25
2022-10-01T02:33:32.319Z,100183.78
2022-10-01T02:36:01.550Z,100176.56
2022-10-01T02:38:30.144Z,100175.06
2022-10-01T02:41:01.284Z,100184.13
2022-10-01T02:43:32.727Z,100179.19
2022-10-01T02:46:05.205Z,100179.31
2022-10-01T02:48:33.540Z,100168.91
2022-10-01T02:51:06.049Z,100177.94
2022-10-01T02:53:38.964Z,100157.31
2022-10-01T02:56:08.242Z,100165.28
2022-10-01T02:58:36.476Z,100159.34
2022-10-01T03:01:06.308Z,100162.13
2022-10-01T03:03:34.693Z,100155.34
2022-10-01T03:06:02.937Z,100154.72
2022-10-01T03:08:31.666Z,100155.19
2022-10-01T03:10:59.961Z,100146.78
2022-10-01T03:13:28.109Z,100149.63
2022-10-01T03:15:56.571Z,100146.78
2022-10-01T03:18:26.421Z,100147.06
2022-10-01T03:20:54.547Z,100158.16
2022-10-01T03:23:22.836Z,100159.78
2022-10-01T03:25:51.113Z,100141.25
2022-10-01T03:28:19.262Z,100156.19
2022-10-01T03:30:47.513Z,100158.16
2022-10-01T03:33:15.783Z,100153.91
2022-10-01T03:35:45.286Z,100148.25
2022-10-01T03:38:13.879Z,100150.06
2022-10-01T03:40:42.338Z,100153.63
2022-10-01T03:43:10.489Z,100160.56
2022-10-01T03:45:39.540Z,100153.09
2022-10-01T03:48:08.099Z,100154.56
2022-10-01T03:50:36.800Z,100149.97
2022-10-01T03:53:07.262Z,100147.94
2022-10-01T03:55:35.747Z,100147.94
2022-10-01T03:58:03.963Z,100146.44
2022-10-01T04:00:32.180Z,100149.56
2022-10-01T04:03:00.580Z,100152.56
2022-10-01T04:05:28.736Z,100154.56
2022-10-01T04:07:56.983Z,100160.19
2022-10-01T04:10:26.795Z,100161.66
2022-10-01T04:12:55.685Z,100160.19
2022-10-01T04:15:25.140Z,100161.97
2022-10-01T04:17:53.504Z,100158.69
2022-10-01T04:20:22.284Z,100160.84
2022-10-01T04:22:50.573Z,100166.66
2022-10-01T04:25:19.259Z,100162.34
2022-10-01T04:27:58.345Z,100171.91
2022-10-01T04:30:28.369Z,100165.16
2022-10-01T04:32:56.593Z,100170.91
2022-10-01T04:35:25.559Z,100165.03
2022-10-01T04:37:58.570Z,100157.78
2022-10-01T04:40:27.050Z,100161.56
2022-10-01T04:42:56.640Z,100166.16
2022-10-01T04:45:24.904Z,100167.63
2022-10-01T04:47:54.102Z,100165.78
2022-10-01T04:50:23.304Z,100173.72
2022-10-01T04:52:51.936Z,100177.56
2022-10-01T04:55:21.245Z,100176.72
2022-10-01T04:57:50.042Z,100183.28
2022-10-01T05:00:22.044Z,100178.00
2022-10-01T05:02:51.419Z,100175.38
2022-10-01T05:05:20.528Z,100165.44
2022-10-01T05:07:49.278Z,100179.31
2022-10-01T05:10:19.765Z,100175.72
2022-10-01T05:12:48.614Z,100173.72
2022-10-01T05:15:20.448Z,100173.19
2022-10-01T05:17:49.223Z,100179.31
2022-10-01T05:20:21.322Z,100170.38
2022-10-01T05:22:50.210Z,100163.50
2022-10-01T05:25:18.909Z,100165.91
2022-10-01T05:27:47.233Z,100162.84
2022-10-01T05:30:24.294Z,100166.00
2022-10-01T05:32:58.307Z,100161.69
2022-10-01T05:35:26.940Z,100155.91
2022-10-01T05:37:56.595Z,100163.03
2022-10-01T05:40:25.938Z,100157.88
2022-10-01T05:42:54.553Z,100155.09
2022-10-01T05:45:23.108Z,100153.94
2022-10-01T05:47:59.516Z,100154.44
2022-10-01T05:50:28.851Z,100154.66
2022-10-01T05:52:57.190Z,100144.06
2022-10-01T05:55:26.031Z,100154.16
2022-10-01T05:57:58.507Z,100143.06
2022-10-01T06:00:29.391Z,100147.50
2022-10-01T06:03:01.331Z,100146.66
2022-10-01T06:05:30.903Z,100143.06
2022-10-01T06:07:59.138Z,100142.06
2022-10-01T06:10:30.480Z,100129.91
2022-10-01T06:13:01.905Z,100133.84
2022-10-01T06:15:31.874Z,100131.56
2022-10-01T06:18:04.656Z,100113.56
2022-10-01T06:20:33.339Z,100123.34
2022-10-01T06:23:02.121Z,100128.28
2022-10-01T06:25:31.132Z,100122.84
2022-10-01T06:28:01.310Z,100123.00
2022-10-01T06:30:31.983Z,100127.09
2022-10-01T06:33:02.923Z,100119.34
2022-10-01T06:35:32.987Z,100121.00
2022-10-01T06:38:02.662Z,100114.72
2022-10-01T06:40:31.283Z,100116.00
2022-10-01T06:42:59.812Z,100124.63
2022-10-01T06:45:28.644Z,100120.53
2022-10-01T06:47:57.461Z,100114.94
2022-10-01T06:50:26.035Z,100101.59
2022-10-01T06:52:56.091Z,100097.59
2022-10-01T06:55:27.923Z,100099.09
2022-10-01T06:57:57.014Z,100091.84
2022-10-01T07:00:25.444Z,100092.34
2022-10-01T07:02:54.326Z,100098.63
2022-10-01T07:05:22.858Z,100074.97
2022-10-01T07:07:51.090Z,100084.22
2022-10-01T07:10:23.454Z,100079.78
2022-10-01T07:12:52.023Z,100076.16
2022-10-01T07:15:22.937Z,100087.41
2022-10-01T07:17:52.360Z,100076.16
2022-10-01T07:20:22.049Z,100081.28
2022-10-01T07:22:50.906Z,100082.28
2022-10-01T07:25:20.558Z,100075.22
2022-10-01T07:27:49.012Z,100070.03
2022-10-01T07:30:17.431Z,100077.31
2022-10-01T07:32:46.071Z,100075.19
2022-10-01T07:35:14.557Z,100067.25
2022-10-01T07:37:42.950Z,100067.91
2022-10-01T07:40:11.582Z,100058.47
2022-10-01T07:42:41.367Z,100064.94
2022-10-01T07:45:10.930Z,100054.00
2022-10-01T07:47:39.085Z,100047.72
2022-10-01T07:50:08.261Z,100050.38
2022-10-01T07:52:36.613Z,100045.56
2022-10-01T07:55:06.178Z,100050.66
2022-10-01T07:57:35.196Z,100035.78
2022-10-01T08:00:05.979Z,100037.03
2022-10-01T08:02:35.584Z,100037.50
2022-10-01T08:05:19.054Z,100030.56
2022-10-01T08:07:49.641Z,100024.28
2022-10-01T08:10:20.084Z,100024.09
2022-10-01T08:12:48.296Z,100025.72
2022-10-01T08:15:19.252Z,100018.41
2022-10-01T08:17:47.544Z,100013.56
2022-10-01T08:20:16.963Z,100012.69
2022-10-01T08:22:45.320Z,100012.91
2022-10-01T08:25:13.672Z,100007.56
2022-10-01T08:27:41.875Z,99994.31
2022-10-01T08:30:12.482Z,100010.28
2022-10-01T08:32:42.111Z,99998.88
2022-10-01T08:35:10.507Z,99992.75
2022-10-01T08:37:39.185Z,99991.88
2022-10-01T08:40:09.461Z,99987.06
2022-10-01T08:42:45.971Z,99977.06
2022-10-01T08:45:15.825Z,99985.59
2022-10-01T08:47:49.531Z,99987.91
2022-10-01T08:50:30.417Z,99987.78
2022-10-01T08:53:01.092Z,99984.97
2022-10-01T08:55:36.615Z,99977.88
2022-10-01T08:58:06.677Z,99968.88
2022-10-01T09:00:37.550Z,99957.66
2022-10-01T09:03:09.147Z,99952.03
2022-10-01T09:05:46.264Z,99953.66
2022-10-01T09:08:22.144Z,99959.50
2022-10-01T09:10:55.314Z,99957.16
2022-10-01T09:13:29.899Z,99957.97
2022-10-01T09:16:02.025Z,99949.53
2022-10-01T09:18:41.469Z,99950.00
2022-10-01T09:21:16.746Z,99940.03
2022-10-01T09:23:52.362Z,99950.97
2022-10-01T09:26:25.531Z,99936.28
2022-10-01T09:28:56.131Z,99932.56
2022-10-01T09:31:28.586Z,99937.28
2022-10-01T09:34:03.125Z,99932.03
2022-10-01T09:36:37.763Z,99926.09
2022-10-01T09:39:16.262Z,99932.44
2022-10-01T09:41:46.578Z,99928.16
2022-10-01T09:44:19.057Z,99929.13
2022-10-01T09:46:47.803Z,99928.53
2022-10-01T09:49:25.358Z,99924.41
2022-10-01T09:51:56.671Z,99923.59
2022-10-01T09:54:32.657Z,99916.53
2022-10-01T09:57:06.167Z,99915.34
2022-10-01T09:59:39.660Z,99916.34
2022-10-01T10:02:17.826Z,99910.22
2022-10-01T10:04:47.814Z,99908.09
2022-10-01T10:07:19.191Z,99903.81
2022-10-01T10:09:47.648Z,99908.50
2022-10-01T10:12:29.642Z,99904.38
2022-10-01T10:14:59.112Z,99900.25
2022-10-01T10:17:27.459Z,99891.47
2022-10-01T10:19:57.366Z,99896.06
2022-10-01T10:22:27.012Z,99892.56
2022-10-01T10:24:55.997Z,99885.50
2022-10-01T10:27:27.756Z,99877.72
2022-10-01T10:30:08.820Z,99870.00
2022-10-01T10:32:37.575Z,99872.81
2022-10-01T10:35:13.395Z,99859.91
2022-10-01T10:37:47.028Z,99851.94
2022-10-01T10:40:20.347Z,99843.16
2022-10-01T10:42:50.922Z,99839.50
2022-10-01T10:45:22.818Z,99841.38
2022-10-01T10:47:53.175Z,99859.75
2022-10-01T10:50:41.170Z,99855.66
2022-10-01T10:53:24.429Z,99854.97
2022-10-01T10:55:58.376Z,99849.81
2022-10-01T10:58:27.729Z,99846.78
2022-10-01T11:00:58.520Z,99837.00
2022-10-01T11:03:29.646Z,99845.69
2022-10-01T11:06:03.870Z,99841.53
2022-10-01T11:08:32.507Z,99839.28
2022-10-01T11:11:11.126Z,99832.63
2022-10-01T11:13:51.323Z,99836.16
2022-10-01T11:16:34.339Z,99835.31
2022-10-01T11:19:26.975Z,99832.19
2022-10-01T11:22:06.268Z,99825.34
2022-10-01T11:24:52.817Z,99820.78
2022-10-01T11:27:27.389Z,99825.75
2022-10-01T11:30:01.972Z,99815.34
2022-10-01T11:32:35.808Z,99813.84
2022-10-01T11:35:45.806Z,99806.84
2022-10-01T11:38:41.463Z,99791.53
2022-10-01T11:41:17.048Z,99801.34
2022-10-01T11:43:47.266Z,99796.63
2022-10-01T11:46:18.178Z,99798.88
2022-10-01T11:48:48.659Z,99805.09
2022-10-01T11:51:19.649Z,99791.63
2022-10-01T11:53:52.253Z,99781.88
2022-10-01T11:56:40.215Z,99777.69
2022-10-01T11:59:11.953Z,99768.31
2022-10-01T12:01:42.991Z,99772.31
2022-10-01T12:04:24.753Z,99768.09
2022-10-01T12:06:56.450Z,99760.56
2022-10-01T12:09:32.545Z,99761.16
2022-10-01T12:12:03.223Z,99759.38
2022-10-01T12:14:35.321Z,99749.78
2022-10-01T12:17:12.319Z,99752.38
2022-10-01T12:19:43.529Z,99741.09
2022-10-01T12:22:15.585Z,99742.16
2022-10-01T12:24:46.474Z,99740.38
2022-10-01T12:27:37.251Z,99746.03
2022-10-01T12:30:09.934Z,99744.38
2022-10-01T12:32:48.407Z,99740.50
2022-10-01T12:35:35.770Z,99739.00
2022-10-01T12:38:14.793Z,99731.72
2022-10-01T12:40:48.148Z,99728.41
2022-10-01T12:43:37.398Z,99721.00
2022-10-01T12:46:12.413Z,99721.72
2022-10-01T12:48:44.940Z,99726.53
2022-10-01T12:51:26.120Z,99714.31
2022-10-01T12:54:01.947Z,99709.84
2022-10-01T12:56:36.051Z,99713.84
2022-10-01T12:59:21.311Z,99706.81
2022-10-01T13:02:01.297Z,99692.25
2022-10-01T13:04:44.802Z,99695.78
2022-10-01T13:07:20.494Z,99693.41
2022-10-01T13:09:55.926Z,99702.13
2022-10-01T13:12:42.347Z,99677.00
2022-10-01T13:15:21.853Z,99688.47
2022-10-01T13:17:52.877Z,99696.59
2022-10-01T13:20:26.729Z,99675.25
2022-10-01T13:23:00.703Z,99672.16
2022-10-01T13:25:32.468Z,99675.59
2022-10-01T13:28:06.850Z,99682.16
2022-10-01T13:30:45.866Z,99673.47
2022-10-01T13:33:23.569Z,99679.94
2022-10-01T13:35:59.697Z,99668.44
2022-10-01T13:38:30.565Z,99671.81
2022-10-01T13:41:01.631Z,99671.69
2022-10-01T13:43:32.415Z,99672.28
2022-10-01T13:46:07.848Z,99661.75
2022-10-01T13:48:37.276Z,99669.47
2022-10-01T13:51:09.359Z,99666.41
2022-10-01T13:53:39.488Z,99662.16
2022-10-01T13:56:07.908Z,99671.28
2022-10-01T13:58:40.571Z,99663.06
2022-10-01T14:01:31.731Z,99658.59
2022-10-01T14:04:05.928Z,99670.91
2022-10-01T14:06:42.493Z,99657.41
2022-10-01T14:09:18.395Z,99660.22
2022-10-01T14:12:07.698Z,99659.97
2022-10-01T14:14:56.536Z,99655.78
2022-10-01T14:17:27.249Z,99658.44
2022-10-01T14:19:55.637Z,99653.41
2022-10-01T14:22:48.173Z,99650.09
2022-10-01T14:25:29.927Z,99650.38
2022-10-01T14:28:13.287Z,99644.38
2022-10-01T14:30:48.179Z,99632.78
2022-10-01T14:33:27.603Z,99628.81
2022-10-01T14:35:59.982Z,99626.44
2022-10-01T14:38:28.371Z,99616.59
2022-10-01T14:40:57.127Z,99616.34
2022-10-01T14:43:27.404Z,99615.41
2022-10-01T14:45:59.064Z,99615.16
2022-10-01T14:48:28.330Z,99616.06
2022-10-01T14:51:01.415Z,99620.13
2022-10-01T14:53:30.325Z,99622.47
2022-10-01T14:56:00.696Z,99621.38
2022-10-01T14:58:31.790Z,99617.16
2022-10-01T15:01:02.123Z,99610.69
2022-10-01T15:03:37.660Z,99604.94
2022-10-01T15:06:12.281Z,99596.72
2022-10-01T15:08:42.266Z,99599.03
2022-10-01T15:11:14.214Z,99591.81
2022-10-01T15:13:44.523Z,99580.41
2022-10-01T15:16:16.642Z,99580.28
2022-10-01T15:18:47.955Z,99579.47
2022-10-01T15:21:19.221Z,99581.53
2022-10-01T15:23:48.314Z,99576.41
2022-10-01T15:26:21.617Z,99567.00
2022-10-01T15:28:50.080Z,99566.06
2022-10-01T15:31:20.223Z,99556.97
2022-10-01T15:33:48.551Z,99563.16
2022-10-01T15:36:18.688Z,99555.00
2022-10-01T15:38:48.057Z,99543.72
2022-10-01T15:41:31.537Z,99536.94
2022-10-01T15:44:04.216Z,99549.50
2022-10-01T15:46:35.943Z,99534.59
2022-10-01T15:49:19.413Z,99538.25
2022-10-01T15:52:11.788Z,99533.25
2022-10-01T15:54:41.810Z,99530.22
2022-10-01T15:57:11.289Z,99516.63
2022-10-01T15:59:41.789Z,99519.00
2022-10-01T16:02:18.895Z,99515.31
2022-10-01T16:04:47.606Z,99516.16
2022-10-01T16:07:21.484Z,99512.41
2022-10-01T16:09:53.938Z,99489.25
2022-10-01T16:12:23.421Z,99496.03
2022-10-01T16:15:01.752Z,99504.72
2022-10-01T16:17:35.648Z,99496.75
2022-10-01T16:20:38.954Z,99484.81
2022-10-01T16:23:35.799Z,99482.00
2022-10-01T16:26:04.930Z,99479.88
2022-10-01T16:28:34.687Z,99481.53
2022-10-01T16:31:03.617Z,99475.91
2022-10-01T16:33:31.807Z,99474.88
2022-10-01T16:36:11.489Z,99474.53
2022-10-01T16:38:39.726Z,99475.56
2022-10-01T16:41:07.961Z,99470.88
2022-10-01T16:43:36.215Z,99465.72
2022-10-01T16:46:04.891Z,99457.66
2022-10-01T16:48:33.137Z,99454.84
2022-10-01T16:51:01.456Z,99446.41
2022-10-01T16:53:31.032Z,99440.78
2022-10-01T16:55:59.256Z,99438.31
2022-10-01T16:58:27.921Z,99437.50
2022-10-01T17:00:56.195Z,99435.84
2022-10-01T17:03:24.590Z,99425.81
2022-10-01T17:05:52.965Z,99414.91
2022-10-01T17:08:21.212Z,99410.09
2022-10-01T17:10:57.056Z,99412.09
2022-10-01T17:13:26.187Z,99418.03
2022-10-01T17:15:54.820Z,99407.63
2022-10-01T17:18:23.913Z,99400.03
2022-10-01T17:20:52.180Z,99394.88
2022-10-01T17:23:22.349Z,99392.06
2022-10-01T17:25:52.264Z,99390.41
2022-10-01T17:28:21.808Z,99382.81
2022-10-01T17:30:50.672Z,99384.81
2022-10-01T17:33:20.400Z,99375.53
2022-10-01T17:35:51.977Z,99373.44
2022-10-01T17:38:21.255Z,99371.44
2022-10-01T17:40:56.335Z,99368.16
2022-10-01T17:43:25.485Z,99367.00
2022-10-01T17:45:57.210Z,99365.00
2022-10-01T17:48:26.769Z,99351.75
2022-10-01T17:51:03.592Z,99347.31
2022-10-01T17:53:38.253Z,99346.84
2022-10-01T17:56:14.644Z,99341.22
2022-10-01T17:58:45.563Z,99339.94
2022-10-01T18:01:16.129Z,99337.97
2022-10-01T18:03:44.786Z,99322.59
2022-10-01T18:06:15.491Z,99327.06
2022-10-01T18:08:55.172Z,99309.38
2022-10-01T18:11:26.585Z,99320.63
2022-10-01T18:13:54.837Z,99314.19
2022-10-01T18:16:23.406Z,99306.56
2022-10-01T18:21:44.882Z,99303.31
2022-10-01T18:24:13.243Z,99294.38
2022-10-01T18:26:43.011Z,99284.78
2022-10-01T18:29:12.051Z,99286.88
2022-10-01T18:31:44.983Z,99278.81
2022-10-01T18:34:18.827Z,99272.03
2022-10-01T18:36:53.685Z,99256.31
2022-10-01T18:39:28.069Z,99254.34
2022-10-01T18:41:58.337Z,99251.53
2022-10-01T18:44:27.171Z,99246.84
2022-10-01T18:47:07.371Z,99237.94
2022-10-01T18:50:00.275Z,99237.72
2022-10-01T18:52:36.866Z,99232.09
2022-10-01T18:55:21.722Z,99225.16
2022-10-01T18:58:13.854Z,99229.97
2022-10-01T19:00:48.064Z,99218.72
2022-10-01T19:03:38.516Z,99223.56
2022-10-01T19:06:24.452Z,99221.09
2022-10-01T19:09:13.511Z,99219.44
2022-10-01T19:11:46.853Z,99213.81
2022-10-01T19:14:43.464Z,99209.75
2022-10-01T19:17:25.528Z,99206.56
2022-10-01T19:20:05.701Z,99211.34
2022-10-01T19:22:42.341Z,99217.34
2022-10-01T19:25:20.003Z,99206.13
2022-10-01T19:27:59.825Z,99199.09
2022-10-01T19:30:33.157Z,99204.81
2022-10-01T19:33:01.578Z,99196.53
2022-10-01T19:35:33.851Z,99196.53
2022-10-01T19:38:05.597Z,99198.13
2022-10-01T19:40:38.455Z,99193.00
2022-10-01T19:43:10.789Z,99195.56
2022-10-01T19:45:49.009Z,99196.00
2022-10-01T19:48:22.204Z,99197.66
2022-10-01T19:50:53.228Z,99194.94
2022-10-01T19:53:25.746Z,99172.56
2022-10-01T19:55:55.342Z,99186.97
2022-10-01T19:58:24.273Z,99179.38
2022-10-01T20:00:56.338Z,99185.44
2022-10-01T20:03:39.328Z,99181.47
2022-10-01T20:06:11.401Z,99172.09
2022-10-01T20:08:44.492Z,99194.34
2022-10-01T20:11:15.485Z,99183.78
2022-10-01T20:13:53.919Z,99181.50
2022-10-01T20:16:27.805Z,99180.22
2022-10-01T20:19:05.193Z,99170.16
2022-10-01T20:21:43.387Z,99156.50
2022-10-01T20:24:21.214Z,99160.72
2022-10-01T20:26:52.278Z,99155.34
2022-10-01T20:29:36.890Z,99149.63
2022-10-01T20:32:13.616Z,99137.56
2022-10-01T20:34:50.018Z,99134.50
2022-10-01T20:37:35.178Z,99129.72
2022-10-01T20:40:07.107Z,99124.44
2022-10-01T20:42:40.455Z,99108.41
2022-10-01T20:45:10.998Z,99112.28
2022-10-01T20:47:46.987Z,99110.63
2022-10-01T20:50:20.765Z,99110.88
2022-10-01T20:52:53.898Z,99097.78
2022-10-01T20:55:28.915Z,99107.81
2022-10-01T20:58:00.219Z,99105.25
2022-10-01T21:00:29.541Z,99104.81
2022-10-01T21:03:06.155Z,99107.28
2022-10-01T21:05:36.721Z,99097.06
2022-10-01T21:08:08.798Z,99102.06
2022-10-01T21:10:42.633Z,99096.44
2022-10-01T21:13:16.543Z,99090.97
2022-10-01T21:15:54.100Z,99092.38
2022-10-01T21:18:32.222Z,99085.69
2022-10-01T21:21:10.721Z,99084.38
2022-10-01T21:23:46.465Z,99082.72
2022-10-01T21:26:24.475Z,99080.38
2022-10-01T21:29:19.502Z,99086.00
2022-10-01T21:31:55.461Z,99082.81
2022-10-01T21:34:30.573Z,99089.16
2022-10-01T21:37:05.921Z,99084.47
2022-10-01T21:39:35.319Z,99091.09
2022-10-01T21:42:14.776Z,99090.75
2022-10-01T21:45:06.796Z,99099.78
2022-10-01T21:47:46.643Z,99094.38
2022-10-01T21:50:23.163Z,99095.91
2022-10-01T21:53:19.982Z,99097.63
2022-10-01T21:56:06.717Z,99097.28
2022-10-01T21:58:44.196Z,99084.06
2022-10-01T22:01:22.067Z,99087.13
2022-10-01T22:03:53.328Z,99092.03
2022-10-01T22:06:29.617Z,99092.94
2022-10-01T22:09:04.004Z,99094.28
2022-10-01T22:11:37.050Z,99099.09
2022-10-01T22:14:12.720Z,99091.81
2022-10-01T22:16:44.836Z,99102.16
2022-10-01T22:19:15.298Z,99105.19
2022-10-01T22:21:47.181Z,99100.16
2022-10-01T22:24:17.651Z,99110.91
2022-10-01T22:26:48.744Z,99115.03
2022-10-01T22:29:20.396Z,99114.09
2022-10-01T22:31:50.959Z,99116.44
2022-10-01T22:34:23.257Z,99112.56
2022-10-01T22:36:57.244Z,99098.47
2022-10-01T22:39:26.667Z,99105.00
2022-10-01T22:41:59.356Z,99118.56
2022-10-01T22:44:29.248Z,99107.44
2022-10-01T22:47:19.343Z,99108.97
2022-10-01T22:50:00.432Z,99115.75
2022-10-01T22:52:35.122Z,99116.94
2022-10-01T22:55:11.475Z,99111.09
2022-10-01T22:58:17.542Z,99120.13
2022-10-01T23:00:52.437Z,99120.69
2022-10-01T23:03:33.215Z,99115.09
2022-10-01T23:06:06.011Z,99115.47
2022-10-01T23:08:43.287Z,99120.34
2022-10-01T23:11:17.919Z,99116.25
2022-10-01T23:13:56.768Z,99118.72
2022-10-01T23:16:32.342Z,99114.16
2022-10-01T23:19:11.518Z,99116.63
2022-10-01T23:21:47.205Z,99116.63
2022-10-01T23:24:27.109Z,99121.75
2022-10-01T23:27:03.670Z,99123.31
2022-10-01T23:29:50.662Z,99121.56
2022-10-01T23:32:28.688Z,99121.19
2022-10-01T23:35:02.836Z,99124.47
2022-10-01T23:37:50.083Z,99119.56
2022-10-01T23:40:22.966Z,99128.47
2022-10-01T23:42:56.881Z,99127.06
2022-10-01T23:45:30.198Z,99122.59
2022-10-01T23:48:00.384Z,99121.19
2022-10-01T23:50:42.133Z,99122.59
2022-10-01T23:53:15.063Z,99133.97
2022-10-01T23:56:07.578Z,99129.50
2022-10-01T23:58:43.662Z,99120.28
